Time;durP1;ratioP1;P1;durP2;ratioP2;P2;SDS_P1;SDS_P2;PMS_P1;PMS_P2;Temp;Humidity;BMP_temperature;BMP_pressure;BME280_temperature;BME280_humidity;BME280_pressure;Samples;Min_cycle;Max_cycle;Signal;HPM_P1;HPM_P2
2022/05/11 00:01:29;;;;;;;1.63;0.10;;;15.10;99.90;;;;;;5055993;28;20023;-76
2022/05/11 00:03:56;;;;;;;2.28;0.63;;;15.00;99.90;;;;;;5056171;28;20032;-76
2022/05/11 00:06:22;;;;;;;3.28;0.03;;;15.00;99.90;;;;;;5055129;28;20025;-75
2022/05/11 00:08:48;;;;;;;3.15;0.10;;;15.00;99.90;;;;;;5054719;28;20098;-76
2022/05/11 00:11:15;;;;;;;6.15;0.52;;;15.00;99.90;;;;;;5055667;28;20025;-76
2022/05/11 00:13:44;;;;;;;4.18;0.57;;;15.00;99.90;;;;;;5055788;28;20021;-76
2022/05/11 00:16:10;;;;;;;2.17;0.28;;;14.90;99.90;;;;;;5056291;28;20032;-75
2022/05/11 00:18:37;;;;;;;2.70;0.55;;;15.00;99.90;;;;;;5055852;28;20021;-75
2022/05/11 00:21:02;;;;;;;2.45;0.40;;;15.00;99.90;;;;;;5054351;28;20025;-75
2022/05/11 00:23:28;;;;;;;4.15;0.28;;;15.00;99.90;;;;;;5055919;28;20029;-75
2022/05/11 00:25:54;;;;;;;1.83;0.30;;;15.00;99.90;;;;;;5056018;28;20075;-75
2022/05/11 00:28:19;;;;;;;2.45;0.05;;;15.00;99.90;;;;;;5054231;28;20079;-75
2022/05/11 00:30:45;;;;;;;2.15;0.43;;;15.00;99.90;;;;;;5054430;28;20035;-75
2022/05/11 00:33:13;;;;;;;3.88;0.13;;;15.00;99.90;;;;;;5055287;28;20025;-75
2022/05/11 00:35:39;;;;;;;3.03;0.52;;;15.00;99.90;;;;;;5054224;28;20369;-76
2022/05/11 00:38:05;;;;;;;3.08;0.30;;;15.00;99.90;;;;;;5055555;28;20024;-75
2022/05/11 00:40:33;;;;;;;2.72;0.10;;;14.90;99.90;;;;;;5053946;28;20017;-75
2022/05/11 00:42:58;;;;;;;4.28;0.20;;;15.00;99.90;;;;;;5055285;28;20096;-75
2022/05/11 00:45:24;;;;;;;1.85;0.05;;;15.00;99.90;;;;;;5054009;28;20082;-75
2022/05/11 00:47:57;;;;;;;9.50;1.17;;;15.00;99.90;;;;;;5054170;28;20102;-75
2022/05/11 00:50:33;;;;;;;5.18;0.38;;;15.00;99.90;;;;;;5054946;28;20053;-75
2022/05/11 00:53:09;;;;;;;1.33;0.00;;;15.00;99.90;;;;;;5055410;28;20076;-75
2022/05/11 00:55:42;;;;;;;7.25;0.20;;;15.00;99.90;;;;;;5053786;28;20387;-75
2022/05/11 00:58:33;;;;;;;3.00;0.13;;;15.00;99.90;;;;;;5053918;28;20021;-75
2022/05/11 01:00:58;;;;;;;5.85;0.28;;;15.00;99.90;;;;;;5055853;28;20475;-74
2022/05/11 01:03:30;;;;;;;1.52;0.30;;;15.10;99.90;;;;;;5054347;28;20075;-75
2022/05/11 01:05:56;;;;;;;3.20;0.15;;;15.10;99.90;;;;;;5053153;28;20032;-75
2022/05/11 01:08:27;;;;;;;2.45;0.20;;;15.10;99.90;;;;;;5054149;28;20423;-75
2022/05/11 01:10:53;;;;;;;2.28;0.10;;;14.80;99.90;;;;;;5055079;28;20392;-75
2022/05/11 01:13:22;;;;;;;5.35;0.15;;;15.10;99.90;;;;;;5055635;28;20028;-76
2022/05/11 01:15:51;;;;;;;4.93;0.30;;;15.10;99.90;;;;;;5055644;28;20032;-75
2022/05/11 01:18:17;;;;;;;;;;;15.00;99.90;;;;;;5055886;28;20021;-75
2022/05/11 01:20:44;;;;;;;6.78;0.28;;;15.20;99.90;;;;;;5054377;28;19905;-75
2022/05/11 01:23:14;;;;;;;7.05;0.20;;;15.10;99.90;;;;;;5053469;28;20487;-75
2022/05/11 01:25:41;;;;;;;6.45;0.47;;;15.10;99.90;;;;;;5053850;28;20028;-75
2022/05/11 01:28:13;;;;;;;0.98;0.00;;;15.00;99.90;;;;;;5054968;28;20383;-76
2022/05/11 01:30:44;;;;;;;1.55;0.15;;;15.00;99.90;;;;;;5053502;28;20021;-76
2022/05/11 01:33:15;;;;;;;6.05;0.43;;;15.00;99.90;;;;;;5054739;28;20029;-75
2022/05/11 01:36:03;;;;;;;5.25;0.20;;;15.10;99.90;;;;;;5055262;28;20048;-75
2022/05/11 01:38:38;;;;;;;6.57;0.25;;;15.10;99.90;;;;;;5053422;28;20499;-75
2022/05/11 01:41:04;;;;;;;3.58;0.60;;;15.10;99.90;;;;;;5053956;28;20036;-75
2022/05/11 01:43:33;;;;;;;5.82;0.38;;;15.00;99.90;;;;;;5054573;28;20021;-75
2022/05/11 01:46:00;;;;;;;1.33;0.32;;;14.90;99.90;;;;;;5054333;28;20021;-75
2022/05/11 01:48:28;;;;;;;3.03;0.10;;;14.90;99.90;;;;;;5054485;28;20365;-75
2022/05/11 01:50:55;;;;;;;3.50;0.32;;;14.90;99.90;;;;;;5053099;28;20078;-75
2022/05/11 01:53:20;;;;;;;2.25;0.20;;;14.90;99.90;;;;;;5053402;28;20017;-75
2022/05/11 01:55:46;;;;;;;3.47;0.43;;;15.00;99.90;;;;;;5054896;28;20376;-75
2022/05/11 01:58:13;;;;;;;4.43;0.25;;;15.00;99.90;;;;;;5054487;28;20024;-75
2022/05/11 02:00:41;;;;;;;4.75;0.30;;;15.10;99.90;;;;;;5055111;28;20021;-75
2022/05/11 02:03:07;;;;;;;4.00;0.85;;;15.10;99.90;;;;;;5053853;28;20025;-75
2022/05/11 02:08:17;;;;;;;4.43;0.20;;;15.10;99.90;;;;;;5055047;28;20506;-75
2022/05/11 02:10:46;;;;;;;4.50;0.60;;;15.10;99.90;;;;;;5054638;28;20048;-75
2022/05/11 02:13:13;;;;;;;2.92;0.22;;;15.10;99.90;;;;;;5053286;28;20021;-75
2022/05/11 02:15:39;;;;;;;2.45;0.25;;;15.00;99.90;;;;;;5054400;28;20081;-74
2022/05/11 02:18:06;;;;;;;2.78;0.10;;;15.10;99.90;;;;;;5055600;28;20098;-75
2022/05/11 02:20:33;;;;;;;3.38;0.32;;;15.10;99.90;;;;;;5057835;28;20025;-75
2022/05/11 02:23:01;;;;;;;2.95;0.10;;;15.00;99.90;;;;;;5056717;28;20021;-75
2022/05/11 02:25:28;;;;;;;2.38;0.20;;;15.10;99.90;;;;;;5057818;28;20017;-75
2022/05/11 02:27:54;;;;;;;2.88;0.10;;;15.10;99.90;;;;;;5057861;28;20017;-75
2022/05/11 02:30:24;;;;;;;3.08;0.30;;;15.00;99.90;;;;;;5056236;28;20017;-75
2022/05/11 02:32:50;;;;;;;1.60;0.20;;;15.00;99.90;;;;;;5057815;28;20037;-75
2022/05/11 02:35:17;;;;;;;1.88;0.43;;;15.00;99.90;;;;;;5057736;28;20018;-75
2022/05/11 02:37:46;;;;;;;2.33;0.20;;;15.00;99.90;;;;;;5056106;28;20036;-75
2022/05/11 02:40:16;;;;;;;0.95;0.30;;;15.00;99.90;;;;;;5057855;28;20502;-75
2022/05/11 02:42:42;;;;;;;2.45;0.30;;;15.00;99.90;;;;;;5057755;28;20379;-75
2022/05/11 02:45:09;;;;;;;3.25;0.20;;;15.00;99.90;;;;;;5057920;28;20055;-75
2022/05/11 02:47:35;;;;;;;1.08;0.22;;;15.00;99.90;;;;;;5057313;28;20064;-75
2022/05/11 02:50:03;;;;;;;1.58;0.00;;;14.90;99.90;;;;;;5055844;28;20021;-75
2022/05/11 02:52:30;;;;;;;2.40;0.10;;;14.90;99.90;;;;;;5057043;28;20029;-75
2022/05/11 02:54:55;;;;;;;2.20;0.32;;;14.90;99.90;;;;;;5056089;28;20017;-75
2022/05/11 02:57:21;;;;;;;2.38;0.22;;;15.00;99.90;;;;;;5057324;28;20448;-77
2022/05/11 02:59:49;;;;;;;2.45;0.38;;;15.00;99.90;;;;;;5056815;28;20048;-75
2022/05/11 03:02:20;;;;;;;1.33;0.10;;;15.00;99.90;;;;;;5057152;28;20021;-74
2022/05/11 03:04:47;;;;;;;4.85;0.40;;;15.00;99.90;;;;;;5055516;28;20271;-74
2022/05/11 03:07:13;;;;;;;4.72;0.20;;;14.90;99.90;;;;;;5056745;28;20025;-74
2022/05/11 03:09:39;;;;;;;2.20;0.32;;;14.90;99.90;;;;;;5057293;28;20132;-74
2022/05/11 03:12:06;;;;;;;4.28;0.15;;;14.90;99.90;;;;;;5056533;28;20052;-74
2022/05/11 03:14:31;;;;;;;4.43;0.00;;;14.90;99.90;;;;;;5058763;28;20104;-74
2022/05/11 03:16:57;;;;;;;3.25;0.43;;;14.90;99.90;;;;;;5056836;28;20491;-75
2022/05/11 03:19:23;;;;;;;3.53;0.43;;;14.90;99.90;;;;;;5056361;28;20032;-76
2022/05/11 03:21:52;;;;;;;4.78;0.10;;;15.00;99.90;;;;;;5056344;28;20036;-75
2022/05/11 03:24:18;;;;;;;3.00;0.10;;;15.00;99.90;;;;;;5055528;28;20114;-75
2022/05/11 03:26:44;;;;;;;3.40;0.00;;;15.00;99.90;;;;;;5056884;28;20029;-75
2022/05/11 03:29:10;;;;;;;2.05;0.20;;;15.60;99.90;;;;;;5055918;28;20391;-75
2022/05/11 03:31:38;;;;;;;1.30;0.00;;;15.10;99.90;;;;;;5056615;28;20017;-75
2022/05/11 03:36:49;;;;;;;1.48;0.15;;;15.00;99.90;;;;;;5057035;28;20028;-75
2022/05/11 03:39:16;;;;;;;0.60;0.00;;;15.00;99.90;;;;;;5056619;28;20017;-74
2022/05/11 03:41:45;;;;;;;1.90;0.00;;;15.00;99.90;;;;;;5056684;28;20017;-74
2022/05/11 03:44:11;;;;;;;;;;;15.10;99.90;;;;;;5055616;28;20024;-74
2022/05/11 03:46:37;;;;;;;1.35;0.00;;;15.00;99.90;;;;;;5055087;28;20413;-74
2022/05/11 03:49:02;;;;;;;0.77;0.05;;;15.00;99.90;;;;;;5054686;28;20033;-74
2022/05/11 03:51:28;;;;;;;1.88;0.08;;;15.00;99.90;;;;;;5056340;28;20024;-75
2022/05/11 03:53:54;;;;;;;3.70;0.32;;;15.10;99.90;;;;;;5055012;28;20017;-75
2022/05/11 03:56:19;;;;;;;0.60;0.03;;;15.10;99.90;;;;;;5055215;28;20056;-74
2022/05/11 03:58:47;;;;;;;5.22;0.80;;;14.80;99.90;;;;;;5056275;28;20028;-74
2022/05/11 04:01:14;;;;;;;1.23;0.10;;;14.90;99.90;;;;;;5056219;28;20021;-75
2022/05/11 04:03:40;;;;;;;3.58;0.00;;;14.90;99.90;;;;;;5055790;28;20025;-74
2022/05/11 04:06:06;;;;;;;3.90;0.35;;;14.90;99.90;;;;;;5055706;28;20120;-75
2022/05/11 04:08:31;;;;;;;3.13;0.00;;;15.10;99.90;;;;;;5055741;28;20052;-75
2022/05/11 04:10:57;;;;;;;5.03;0.13;;;15.50;99.90;;;;;;5054487;28;20060;-75
2022/05/11 04:13:23;;;;;;;5.70;0.70;;;15.80;99.90;;;;;;5055828;28;20025;-74
2022/05/11 04:15:50;;;;;;;0.98;0.00;;;14.90;99.90;;;;;;5055534;28;20071;-74
2022/05/11 04:18:21;;;;;;;2.83;0.00;;;15.00;99.90;;;;;;5054052;28;20024;-74
2022/05/11 04:20:48;;;;;;;2.30;0.00;;;15.00;99.90;;;;;;5054693;28;20107;-74
2022/05/11 04:23:13;;;;;;;0.80;0.05;;;14.90;99.90;;;;;;5055946;28;20068;-75
2022/05/11 04:25:39;;;;;;;2.72;0.10;;;14.90;99.90;;;;;;5054533;28;20025;-75
2022/05/11 04:28:11;;;;;;;0.35;0.00;;;15.40;99.90;;;;;;5054103;28;20028;-75
2022/05/11 04:30:37;;;;;;;1.30;0.10;;;14.90;99.90;;;;;;5054463;28;20025;-75
2022/05/11 04:33:02;;;;;;;4.43;0.00;;;14.90;99.90;;;;;;5055835;28;20033;-75
2022/05/11 04:35:30;;;;;;;2.17;0.15;;;14.90;99.90;;;;;;5056050;28;20112;-75
2022/05/11 04:37:57;;;;;;;3.55;0.00;;;14.90;99.90;;;;;;5056520;28;20586;-75
2022/05/11 04:40:24;;;;;;;5.75;0.35;;;15.00;99.90;;;;;;5055409;28;20068;-75
2022/05/11 04:42:50;;;;;;;3.90;0.30;;;15.10;99.90;;;;;;5056229;28;20042;-75
2022/05/11 04:45:18;;;;;;;0.88;0.20;;;15.00;99.90;;;;;;5056168;28;20048;-75
2022/05/11 04:47:44;;;;;;;2.72;0.10;;;15.00;99.90;;;;;;5054401;28;20021;-75
2022/05/11 04:50:12;;;;;;;1.92;0.00;;;18.10;99.90;;;;;;5055889;28;20043;-75
2022/05/11 04:52:38;;;;;;;1.60;0.00;;;15.00;99.90;;;;;;5054226;28;20430;-75
2022/05/11 04:55:05;;;;;;;3.88;0.45;;;15.00;99.90;;;;;;5055401;28;20021;-75
2022/05/11 04:57:33;;;;;;;3.88;0.25;;;15.00;99.90;;;;;;5053983;28;20028;-74
2022/05/11 04:59:59;;;;;;;1.17;0.00;;;15.50;99.90;;;;;;5053732;28;20446;-75
2022/05/11 05:02:29;;;;;;;1.35;0.20;;;15.00;99.90;;;;;;5053561;28;20422;-75
2022/05/11 05:04:59;;;;;;;4.90;0.00;;;15.00;99.90;;;;;;5053548;28;20017;-75
2022/05/11 05:07:27;;;;;;;2.60;0.20;;;15.00;99.90;;;;;;5054962;28;20031;-75
2022/05/11 05:09:53;;;;;;;0.63;0.08;;;15.00;99.90;;;;;;5054204;28;20037;-75
2022/05/11 05:12:19;;;;;;;1.25;0.10;;;15.00;99.90;;;;;;5054352;28;20396;-76
2022/05/11 05:14:44;;;;;;;4.22;0.05;;;15.00;99.90;;;;;;5053746;28;20086;-76
2022/05/11 05:17:12;;;;;;;2.97;0.20;;;15.10;99.90;;;;;;5055273;28;20024;-76
2022/05/11 05:19:41;;;;;;;1.05;0.00;;;15.20;99.90;;;;;;5055402;28;20066;-75
2022/05/11 05:22:07;;;;;;;;;;;15.30;99.90;;;;;;5056201;28;20032;-75
2022/05/11 05:24:33;;;;;;;2.63;0.00;;;15.50;99.90;;;;;;5055956;28;19905;-75
2022/05/11 05:27:00;;;;;;;0.30;0.00;;;15.50;99.90;;;;;;5055197;28;20029;-75
2022/05/11 05:32:11;;;;;;;3.60;0.00;;;15.60;99.90;;;;;;5054967;28;20116;-76
2022/05/11 05:34:37;;;;;;;1.70;0.00;;;15.60;99.90;;;;;;5052793;28;20030;-76
2022/05/11 05:37:03;;;;;;;1.90;0.20;;;15.60;99.90;;;;;;5052390;28;20195;-74
2022/05/11 05:39:29;;;;;;;4.63;0.30;;;15.70;99.90;;;;;;5053371;28;20025;-74
2022/05/11 05:41:54;;;;;;;1.75;0.15;;;15.90;99.90;;;;;;5053830;28;20025;-74
2022/05/11 05:44:20;;;;;;;1.75;0.00;;;16.00;99.90;;;;;;5053606;28;20033;-74
2022/05/11 05:46:46;;;;;;;2.67;0.00;;;16.00;99.90;;;;;;5053930;28;20064;-74
2022/05/11 05:49:12;;;;;;;1.20;0.00;;;16.00;99.90;;;;;;5052288;28;20082;-74
2022/05/11 05:51:39;;;;;;;4.50;0.32;;;16.40;98.90;;;;;;5053241;28;20042;-73
2022/05/11 05:54:05;;;;;;;4.57;0.00;;;16.00;98.60;;;;;;5056171;28;20025;-74
2022/05/11 05:56:32;;;;;;;1.50;0.00;;;15.90;98.20;;;;;;5057221;28;20024;-74
2022/05/11 05:59:01;;;;;;;1.40;0.30;;;15.80;99.90;;;;;;5056264;28;20070;-74
2022/05/11 06:01:28;;;;;;;7.32;0.00;;;15.80;98.80;;;;;;5056384;28;20112;-74
2022/05/11 06:03:53;;;;;;;5.20;0.30;;;16.00;99.10;;;;;;5055836;28;20114;-74
2022/05/11 06:06:21;;;;;;;0.82;0.00;;;16.20;98.30;;;;;;5055896;28;20029;-75
2022/05/11 06:08:47;;;;;;;4.38;0.35;;;16.10;98.20;;;;;;5055700;28;20024;-74
2022/05/11 06:11:12;;;;;;;1.90;0.10;;;16.30;97.70;;;;;;5056350;28;20032;-74
2022/05/11 06:13:38;;;;;;;0.47;0.00;;;16.40;96.10;;;;;;5056571;28;20047;-75
2022/05/11 06:16:13;;;;;;;3.25;0.00;;;16.20;95.50;;;;;;5055257;28;20431;-75
2022/05/11 06:18:41;;;;;;;1.50;0.00;;;16.20;95.50;;;;;;5056451;28;20024;-75
2022/05/11 06:21:07;;;;;;;1.83;0.43;;;16.30;95.10;;;;;;5055510;28;20017;-75
2022/05/11 06:23:33;;;;;;;3.65;0.30;;;16.40;94.80;;;;;;5056399;28;20203;-74
2022/05/11 06:25:58;;;;;;;0.55;0.00;;;16.60;95.70;;;;;;5056317;28;20127;-74
2022/05/11 06:28:24;;;;;;;5.90;0.43;;;16.60;95.10;;;;;;5056318;28;20029;-74
2022/05/11 06:30:49;;;;;;;2.20;0.10;;;16.80;94.60;;;;;;5056497;28;20033;-75
2022/05/11 06:33:15;;;;;;;2.55;0.00;;;16.90;92.00;;;;;;5055027;28;20036;-74
2022/05/11 06:35:41;;;;;;;2.63;0.52;;;17.00;92.30;;;;;;5056338;28;20040;-76
2022/05/11 06:38:08;;;;;;;3.25;0.20;;;16.80;92.90;;;;;;5056830;28;20021;-76
2022/05/11 06:40:34;;;;;;;6.78;0.10;;;16.70;92.60;;;;;;5054947;28;20020;-76
2022/05/11 06:43:01;;;;;;;0.55;0.00;;;16.80;93.80;;;;;;5056904;28;20025;-76
2022/05/11 06:45:28;;;;;;;1.52;0.00;;;16.80;94.20;;;;;;5056203;28;20032;-76
2022/05/11 06:47:53;;;;;;;5.22;0.40;;;16.80;92.20;;;;;;5056479;28;20458;-75
2022/05/11 06:50:20;;;;;;;2.70;0.22;;;16.70;91.90;;;;;;5056006;28;20032;-76
2022/05/11 06:52:46;;;;;;;1.27;0.00;;;16.80;92.40;;;;;;5055977;28;20082;-75
2022/05/11 07:00:46;;;;;;;3.00;0.00;;;16.60;94.50;;;;;;5056268;28;20116;-76
2022/05/11 07:03:13;;;;;;;5.28;0.15;;;16.70;93.10;;;;;;5054786;28;20116;-76
2022/05/11 07:05:39;;;;;;;2.63;0.00;;;16.70;94.70;;;;;;5055121;28;20489;-76
2022/05/11 07:08:06;;;;;;;1.55;0.10;;;16.50;95.20;;;;;;5054985;28;20017;-77
2022/05/11 07:10:37;;;;;;;1.40;0.17;;;16.50;96.30;;;;;;5054972;28;20395;-76
2022/05/11 07:13:04;;;;;;;2.70;0.00;;;16.70;95.80;;;;;;5055538;28;20432;-76
2022/05/11 07:15:30;;;;;;;3.22;0.00;;;16.70;94.30;;;;;;5054866;28;20033;-77
2022/05/11 07:18:00;;;;;;;1.08;0.00;;;16.90;94.20;;;;;;5055986;28;20021;-77
2022/05/11 07:20:36;;;;;;;3.72;0.00;;;16.90;93.10;;;;;;5055890;28;20059;-76
2022/05/11 07:23:04;;;;;;;17.90;0.47;;;17.10;94.70;;;;;;5054443;28;20027;-76
2022/05/11 07:25:30;;;;;;;15.02;1.17;;;17.20;92.50;;;;;;5055701;28;20029;-76
2022/05/11 07:27:57;;;;;;;3.30;0.00;;;17.30;91.70;;;;;;5055647;28;20025;-76
2022/05/11 07:30:26;;;;;;;4.07;0.10;;;17.40;91.60;;;;;;5055959;28;20029;-76
2022/05/11 07:32:52;;;;;;;0.35;0.00;;;17.50;90.10;;;;;;5077888;22;20115;-76
2022/05/11 07:35:19;;;;;;;1.27;0.00;;;17.60;90.10;;;;;;5055276;28;20410;-76
2022/05/11 07:37:47;;;;;;;2.60;0.00;;;17.80;91.50;;;;;;5053760;28;20108;-76
2022/05/11 07:40:15;;;;;;;2.65;0.00;;;18.00;87.70;;;;;;5053707;28;20036;-76
2022/05/11 07:42:40;;;;;;;0.30;0.00;;;18.00;86.20;;;;;;5053608;28;20368;-76
2022/05/11 07:45:07;;;;;;;2.17;0.10;;;17.90;84.40;;;;;;5054498;28;20028;-76
2022/05/11 07:47:33;;;;;;;1.02;0.15;;;17.80;85.90;;;;;;5053762;28;20024;-76
2022/05/11 07:49:59;;;;;;;2.40;0.00;;;17.90;85.00;;;;;;5055099;28;20479;-75
2022/05/11 07:52:25;;;;;;;2.85;0.13;;;18.00;86.70;;;;;;5055326;28;20028;-77
2022/05/11 07:54:50;;;;;;;2.65;0.65;;;17.90;83.60;;;;;;5055312;28;20031;-76
2022/05/11 08:00:00;;;;;;;1.13;0.00;;;18.10;85.20;;;;;;5054689;28;20404;-77
2022/05/11 08:02:28;;;;;;;3.30;0.22;;;18.20;88.00;;;;;;5053431;28;20108;-76
2022/05/11 08:04:57;;;;;;;3.05;0.00;;;18.80;83.70;;;;;;5054615;28;20040;-76
2022/05/11 08:07:26;;;;;;;3.00;0.00;;;18.40;83.30;;;;;;5053107;28;20049;-76
2022/05/11 08:09:53;;;;;;;2.13;0.00;;;18.50;83.50;;;;;;5054676;28;20395;-77
2022/05/11 08:12:19;;;;;;;1.60;0.00;;;18.60;83.00;;;;;;5053477;28;20017;-77
2022/05/11 08:14:44;;;;;;;3.38;0.00;;;18.60;79.40;;;;;;5054702;28;20033;-77
2022/05/11 08:17:10;;;;;;;2.05;0.00;;;18.60;82.70;;;;;;5053906;28;20024;-77
2022/05/11 08:19:37;;;;;;;2.13;0.15;;;18.80;78.70;;;;;;5055400;28;20021;-77
2022/05/11 08:22:03;;;;;;;0.85;0.00;;;19.00;79.80;;;;;;5054653;28;20436;-77
2022/05/11 08:24:31;;;;;;;2.08;0.10;;;18.70;78.00;;;;;;5054392;28;20021;-77
2022/05/11 08:26:56;;;;;;;4.28;0.00;;;18.80;77.30;;;;;;5052739;28;20060;-76
2022/05/11 08:33:19;;;;;;;1.80;0.00;;;18.70;77.20;;;;;;5052870;28;20071;-77
2022/05/11 08:34:52;;;;;;;2.30;0.00;;;18.80;77.20;;;;;;5054359;28;20067;-77
2022/05/11 08:37:18;;;;;;;1.40;0.30;;;19.00;76.60;;;;;;5054135;28;20490;-77
2022/05/11 08:39:44;;;;;;;3.30;0.00;;;19.00;74.90;;;;;;5053483;28;20025;-77
2022/05/11 08:42:11;;;;;;;4.13;0.40;;;18.90;77.50;;;;;;5054970;28;20063;-77
2022/05/11 08:44:42;;;;;;;1.02;0.00;;;18.90;79.20;;;;;;5053726;28;20036;-77
2022/05/11 08:47:08;;;;;;;2.50;0.00;;;19.00;75.90;;;;;;5055000;28;20029;-76
2022/05/11 08:49:52;;;;;;;5.05;0.10;;;19.00;74.20;;;;;;5053481;28;20247;-77
2022/05/11 08:52:40;;;;;;;1.73;0.05;;;19.10;78.40;;;;;;5054134;28;20028;-76
2022/05/11 08:55:27;;;;;;;0.98;0.00;;;19.40;78.50;;;;;;5054333;28;20491;-76
2022/05/11 08:57:54;;;;;;;2.40;0.00;;;19.40;72.30;;;;;;5054291;28;20017;-77
2022/05/11 09:00:20;;;;;;;1.60;0.00;;;19.40;73.60;;;;;;5053640;28;20009;-77
2022/05/11 09:03:10;;;;;;;1.38;0.10;;;19.50;70.80;;;;;;5054060;28;20116;-77
2022/05/11 09:05:38;;;;;;;1.60;0.00;;;19.20;70.30;;;;;;5053233;28;20139;-77
2022/05/11 09:08:06;;;;;;;0.20;0.00;;;19.50;69.90;;;;;;5052791;28;20027;-77
2022/05/11 09:10:37;;;;;;;0.73;0.00;;;19.40;69.20;;;;;;5054715;28;20028;-77
2022/05/11 09:13:11;;;;;;;0.80;0.00;;;19.50;69.60;;;;;;5054326;28;20025;-77
2022/05/11 09:15:47;;;;;;;0.43;0.00;;;19.50;67.60;;;;;;5054147;28;20138;-77
2022/05/11 09:18:13;;;;;;;0.65;0.00;;;19.60;66.00;;;;;;5053848;28;20360;-76
2022/05/11 09:20:48;;;;;;;1.10;0.15;;;19.60;68.70;;;;;;5053888;28;20096;-76
2022/05/11 09:23:14;;;;;;;2.25;0.00;;;19.60;66.00;;;;;;5054141;28;20384;-77
2022/05/11 09:25:59;;;;;;;3.28;0.00;;;19.40;68.40;;;;;;5052817;28;20510;-77
2022/05/11 09:28:31;;;;;;;1.17;0.00;;;19.60;64.60;;;;;;5053906;28;20029;-76
2022/05/11 09:30:58;;;;;;;1.92;0.00;;;19.60;65.70;;;;;;5053505;28;20036;-77
2022/05/11 09:33:27;;;;;;;0.75;0.00;;;19.80;65.50;;;;;;5052146;28;20029;-76
2022/05/11 09:35:53;;;;;;;1.88;0.08;;;19.80;66.30;;;;;;5053251;28;20060;-77
2022/05/11 09:38:19;;;;;;;2.22;0.00;;;19.70;66.10;;;;;;5053173;28;20052;-76
2022/05/11 09:40:55;;;;;;;1.95;0.00;;;19.40;66.80;;;;;;5053082;28;20452;-76
2022/05/11 09:43:41;;;;;;;2.45;0.00;;;19.40;67.20;;;;;;5053572;28;20025;-76
2022/05/11 09:46:21;;;;;;;6.80;0.00;;;19.50;68.30;;;;;;5052105;28;20025;-76
2022/05/11 09:49:19;;;;;;;3.88;0.10;;;19.60;69.50;;;;;;5053791;28;20028;-76
2022/05/11 09:51:50;;;;;;;2.33;0.22;;;19.60;69.60;;;;;;5030126;28;20037;-76
2022/05/11 09:54:38;;;;;;;0.93;0.00;;;19.80;68.10;;;;;;5053590;28;20101;-76
2022/05/11 09:57:27;;;;;;;2.78;0.13;;;20.00;68.90;;;;;;5051832;28;20108;-75
2022/05/11 09:59:56;;;;;;;8.02;0.00;;;20.10;67.70;;;;;;5052930;28;20039;-76
2022/05/11 10:02:30;;;;;;;1.55;0.10;;;20.00;68.90;;;;;;5051590;28;20104;-76
2022/05/11 10:05:04;;;;;;;3.08;0.20;;;19.90;72.50;;;;;;5051694;28;20082;-75
2022/05/11 10:07:37;;;;;;;2.92;0.13;;;20.00;70.10;;;;;;5053156;28;20024;-76
2022/05/11 10:10:12;;;;;;;10.95;0.47;;;20.10;71.90;;;;;;5052679;28;20037;-76
2022/05/11 10:12:41;;;;;;;3.70;0.00;;;20.20;70.60;;;;;;5052784;28;20116;-76
2022/05/11 10:24:06;;;;;;;2.65;0.17;;;20.80;70.80;;;;;;5053208;28;20031;-76
2022/05/11 10:27:00;;;;;;;4.78;0.40;;;20.80;69.60;;;;;;5051627;28;20107;-76
2022/05/11 10:29:41;;;;;;;6.88;0.20;;;21.00;67.20;;;;;;5035681;28;20041;-77
2022/05/11 10:32:18;;;;;;;0.45;0.00;;;20.80;63.80;;;;;;5052980;28;20029;-77
2022/05/11 10:35:04;;;;;;;2.50;0.10;;;20.80;64.50;;;;;;5053699;28;20033;-76
2022/05/11 10:37:46;;;;;;;2.00;0.20;;;20.70;65.50;;;;;;5053853;28;20460;-76
2022/05/11 10:40:17;;;;;;;1.90;0.13;;;20.40;64.90;;;;;;5056672;28;20423;-75
2022/05/11 10:43:10;;;;;;;2.67;0.00;;;20.40;65.40;;;;;;5055024;28;20025;-75
2022/05/11 10:45:56;;;;;;;3.83;0.00;;;20.50;64.60;;;;;;5056052;28;20480;-75
2022/05/11 10:48:50;;;;;;;1.65;0.00;;;20.70;64.30;;;;;;5054940;28;20032;-77
2022/05/11 10:51:51;;;;;;;2.42;0.00;;;21.10;66.90;;;;;;5054814;28;20483;-75
2022/05/11 10:55:03;;;;;;;2.28;0.22;;;21.20;63.80;;;;;;5056007;28;20434;-76
2022/05/11 10:57:53;;;;;;;3.80;0.00;;;21.10;61.30;;;;;;5030016;28;20040;-76
2022/05/11 11:00:22;;;;;;;3.70;0.00;;;21.10;63.40;;;;;;5056362;28;20380;-75
2022/05/11 11:03:08;;;;;;;1.17;0.00;;;21.30;63.10;;;;;;5054559;28;20017;-76
2022/05/11 11:07:10;;;;;;;0.82;0.00;;;21.20;61.30;;;;;;5055650;28;20040;-76
2022/05/11 11:08:43;;;;;;;1.40;0.10;;;21.20;60.70;;;;;;5055494;28;20400;-77
2022/05/11 11:11:50;;;;;;;2.75;0.32;;;21.20;62.30;;;;;;5054573;28;20074;-78
2022/05/11 11:14:27;;;;;;;1.75;0.15;;;21.10;59.90;;;;;;5039327;28;20044;-78
2022/05/11 11:16:54;;;;;;;2.83;0.00;;;21.20;62.60;;;;;;5059122;28;20017;-80
2022/05/11 11:19:20;;;;;;;1.77;0.30;;;21.60;62.80;;;;;;5058816;28;20023;-80
2022/05/11 11:21:47;;;;;;;1.17;0.10;;;21.80;57.70;;;;;;5058749;28;20112;-79
2022/05/11 11:24:23;;;;;;;1.35;0.20;;;21.90;58.20;;;;;;5057709;28;20021;-79
2022/05/11 11:26:50;;;;;;;1.88;0.00;;;21.90;59.10;;;;;;5060771;28;20032;-79
2022/05/11 11:29:19;;;;;;;3.63;0.30;;;21.80;59.10;;;;;;5055740;28;20056;-76
2022/05/11 11:31:58;;;;;;;2.97;0.43;;;22.00;57.80;;;;;;5056009;28;20039;-79
2022/05/11 11:34:42;;;;;;;4.32;0.22;;;22.10;59.20;;;;;;5055108;28;20483;-77
2022/05/11 11:37:32;;;;;;;5.88;0.40;;;22.50;57.40;;;;;;5054194;28;20472;-76
2022/05/11 11:39:59;;;;;;;0.98;0.17;;;22.80;56.60;;;;;;5053343;28;20025;-75
2022/05/11 11:42:44;;;;;;;3.38;0.00;;;23.00;56.40;;;;;;5054943;28;20024;-75
2022/05/11 11:45:27;;;;;;;2.17;0.20;;;23.00;55.10;;;;;;5053840;28;20407;-75
2022/05/11 11:48:15;;;;;;;2.08;0.00;;;23.00;54.90;;;;;;5055069;28;20100;-77
2022/05/11 11:50:58;;;;;;;0.38;0.00;;;22.80;55.20;;;;;;5054029;28;20123;-76
2022/05/11 11:53:40;;;;;;;3.20;0.00;;;22.50;54.40;;;;;;5053563;28;20032;-76
2022/05/11 11:56:23;;;;;;;3.17;0.22;;;22.30;55.00;;;;;;5054765;28;20098;-76
2022/05/11 11:59:03;;;;;;;4.05;0.00;;;22.30;55.10;;;;;;5054684;28;20032;-76
2022/05/11 12:01:31;;;;;;;0.28;0.00;;;22.40;54.80;;;;;;5053474;28;20049;-76
2022/05/11 12:03:59;;;;;;;;;;;22.40;53.30;;;;;;5055440;28;20427;-76
2022/05/11 12:15:03;;;;;;;2.30;0.00;;;22.30;52.20;;;;;;5055298;28;20282;-76
2022/05/11 12:17:38;;;;;;;2.05;0.00;;;22.10;53.80;;;;;;5053026;28;20100;-76
2022/05/11 12:20:11;;;;;;;0.52;0.00;;;22.00;52.40;;;;;;5054651;28;20535;-76
2022/05/11 12:22:41;;;;;;;1.70;0.00;;;22.20;53.70;;;;;;5054702;28;20021;-76
2022/05/11 12:25:09;;;;;;;2.70;0.22;;;22.30;53.40;;;;;;5054288;28;20043;-76
2022/05/11 12:27:36;;;;;;;1.70;0.00;;;22.40;53.50;;;;;;5053152;28;20044;-76
2022/05/11 12:30:30;;;;;;;1.55;0.20;;;22.30;54.90;;;;;;5054209;28;20025;-76
2022/05/11 12:33:00;;;;;;;1.58;0.10;;;22.50;52.80;;;;;;5052425;28;20534;-76
2022/05/11 12:35:35;;;;;;;4.35;0.13;;;22.80;55.80;;;;;;5053812;28;20025;-76
2022/05/11 12:38:09;;;;;;;0.85;0.00;;;22.80;52.60;;;;;;5054138;28;20104;-75
2022/05/11 12:40:48;;;;;;;3.40;0.38;;;23.00;52.00;;;;;;5053905;28;20064;-76
2022/05/11 12:43:26;;;;;;;0.88;0.00;;;23.30;51.00;;;;;;5052638;28;20025;-75
2022/05/11 12:45:57;;;;;;;2.08;0.00;;;23.30;50.80;;;;;;5053838;28;20028;-76
2022/05/11 12:48:36;;;;;;;6.22;0.45;;;23.40;51.70;;;;;;5052401;28;20029;-76
2022/05/11 12:51:16;;;;;;;3.25;0.00;;;23.90;53.00;;;;;;5052282;28;20066;-75
2022/05/11 12:53:54;;;;;;;1.90;0.35;;;24.10;51.90;;;;;;5052297;28;20553;-75
2022/05/11 12:56:33;;;;;;;3.10;0.00;;;24.00;51.00;;;;;;5052316;28;20090;-76
2022/05/11 12:59:05;;;;;;;2.47;0.00;;;24.20;51.80;;;;;;5052544;28;20029;-76
2022/05/11 13:01:34;;;;;;;0.70;0.17;;;24.70;51.80;;;;;;5054288;28;20025;-76
2022/05/11 13:04:14;;;;;;;1.85;0.43;;;24.70;50.10;;;;;;5054353;28;20083;-76
2022/05/11 13:06:43;;;;;;;2.58;0.20;;;24.70;51.60;;;;;;5052108;28;20048;-76
2022/05/11 13:09:23;;;;;;;15.43;0.35;;;25.00;49.30;;;;;;5053837;28;20021;-76
2022/05/11 13:11:49;;;;;;;6.20;0.38;;;24.90;49.60;;;;;;5052014;28;20024;-75
2022/05/11 13:14:20;;;;;;;3.75;0.10;;;24.70;50.00;;;;;;5053234;28;20035;-76
2022/05/11 13:16:55;;;;;;;4.78;0.20;;;24.50;49.90;;;;;;5053702;28;20032;-76
2022/05/11 13:19:36;;;;;;;1.65;0.15;;;24.50;51.00;;;;;;5053969;28;20017;-76
2022/05/11 13:22:09;;;;;;;4.68;0.10;;;24.80;52.20;;;;;;5053292;28;20056;-75
2022/05/11 13:24:45;;;;;;;2.22;0.00;;;25.00;50.60;;;;;;5057892;28;20036;-79
2022/05/11 13:27:34;;;;;;;4.00;0.30;;;25.50;51.10;;;;;;5057608;28;20021;-76
2022/05/11 13:30:05;;;;;;;1.90;0.00;;;25.50;49.80;;;;;;5053961;28;20032;-76
2022/05/11 13:32:42;;;;;;;3.05;0.22;;;25.00;50.00;;;;;;5053223;28;20447;-76
2022/05/11 13:35:27;;;;;;;2.63;0.28;;;25.30;50.70;;;;;;5053853;28;20112;-76
2022/05/11 13:38:16;;;;;;;3.92;0.20;;;25.70;49.80;;;;;;5053951;28;20061;-77
2022/05/11 13:41:03;;;;;;;2.53;0.00;;;25.60;46.70;;;;;;5047373;28;20036;-77
2022/05/11 13:43:35;;;;;;;4.18;0.13;;;25.30;49.40;;;;;;5052377;28;20025;-77